Time;durP1;ratioP1;P1;durP2;ratioP2;P2;SDS_P1;SDS_P2;PMS_P1;PMS_P2;Temp;Humidity;BMP_temperature;BMP_pressure;BME280_temperature;BME280_humidity;BME280_pressure;Samples;Min_cycle;Max_cycle;Signal;HPM_P1;HPM_P2
2023/07/20 00:01:02;;;;;;;0.00;0.00;;;;;;;19.28;59.74;101288.06;7335728;19;20435;-60
2023/07/20 00:03:27;;;;;;;0.10;0.10;;;;;;;19.26;60.00;101290.81;7343398;19;20010;-60
2023/07/20 00:05:53;;;;;;;0.10;0.10;;;;;;;19.13;59.96;101273.78;7339804;19;20020;-59
2023/07/20 00:08:18;;;;;;;0.10;0.10;;;;;;;19.20;60.32;101288.44;7340795;19;20014;-59
2023/07/20 00:10:44;;;;;;;0.00;0.00;;;;;;;19.19;60.11;101286.72;7337358;19;20037;-60
2023/07/20 00:13:13;;;;;;;0.10;0.10;;;;;;;19.18;59.82;101285.03;7341184;19;20017;-59
2023/07/20 00:15:38;;;;;;;0.00;0.00;;;;;;;19.13;60.62;101287.88;7338718;19;20718;-60
2023/07/20 00:18:04;;;;;;;0.10;0.10;;;;;;;19.11;60.38;101288.88;7339975;19;20010;-59
2023/07/20 00:20:30;;;;;;;0.00;0.00;;;;;;;19.06;60.30;101285.59;7336195;19;20402;-60
2023/07/20 00:22:57;;;;;;;0.10;0.10;;;;;;;19.06;60.48;101285.59;7339132;19;20065;-60
2023/07/20 00:25:23;;;;;;;0.10;0.10;;;;;;;19.02;60.47;101284.91;7339761;19;20031;-59
2023/07/20 00:27:49;;;;;;;0.10;0.10;;;;;;;18.66;60.29;101231.94;7338354;19;21637;-60
2023/07/20 00:30:15;;;;;;;0.00;0.00;;;;;;;18.99;60.08;101289.50;7340770;19;20015;-60
2023/07/20 00:32:42;;;;;;;0.03;0.03;;;;;;;18.97;60.05;101286.06;7340795;19;20027;-59
2023/07/20 00:35:07;;;;;;;0.10;0.10;;;;;;;18.92;60.41;101279.19;7340959;19;20014;-59
2023/07/20 00:37:33;;;;;;;0.10;0.10;;;;;;;18.90;59.91;101281.03;7337661;19;20839;-60
2023/07/20 00:39:58;;;;;;;0.10;0.10;;;;;;;18.89;60.14;101284.63;7338741;19;20734;-59
2023/07/20 00:42:24;;;;;;;0.10;0.10;;;;;;;18.86;60.03;101290.09;7339816;19;20009;-59
2023/07/20 00:44:49;;;;;;;0.10;0.10;;;;;;;18.84;60.41;101286.63;7340359;19;20018;-60
2023/07/20 00:47:15;;;;;;;0.10;0.10;;;;;;;18.81;60.50;101286.81;7338664;19;20006;-60
2023/07/20 00:49:40;;;;;;;0.10;0.10;;;;;;;18.80;60.88;101285.06;7337258;19;20638;-59
2023/07/20 00:52:07;;;;;;;0.00;0.00;;;;;;;18.79;60.39;101287.78;7334526;19;20010;-60
2023/07/20 00:54:34;;;;;;;0.10;0.10;;;;;;;18.77;60.93;101285.22;7340414;19;20793;-59
2023/07/20 00:57:01;;;;;;;0.10;0.10;;;;;;;18.74;60.59;101285.38;7338308;19;20034;-60
2023/07/20 00:59:27;;;;;;;0.10;0.10;;;;;;;18.72;61.10;101281.94;7339041;19;20011;-59
2023/07/20 01:01:52;;;;;;;0.00;0.00;;;;;;;18.59;61.36;101259.59;7336652;19;20010;-59
2023/07/20 01:04:18;;;;;;;0.10;0.10;;;;;;;18.68;61.13;101283.00;7340196;19;20901;-60
2023/07/20 01:06:53;;;;;;;0.10;0.10;;;;;;;18.65;60.73;101281.34;7329796;19;20025;-60
2023/07/20 01:09:23;;;;;;;0.10;0.10;;;;;;;18.63;61.33;101280.56;7339232;19;20089;-60
2023/07/20 01:11:48;;;;;;;0.10;0.10;;;;;;;18.61;61.39;101284.22;7329675;19;20015;-60
2023/07/20 01:14:14;;;;;;;0.10;0.10;;;;;;;18.59;61.01;101283.41;7337631;19;20771;-60
2023/07/20 01:16:39;;;;;;;0.00;0.00;;;;;;;18.57;61.23;101282.63;7332512;19;20691;-60
2023/07/20 01:19:05;;;;;;;0.00;0.00;;;;;;;18.54;61.15;101274.84;7339550;19;20010;-60
2023/07/20 01:21:47;;;;;;;0.10;0.10;;;;;;;18.57;60.69;101285.28;7334553;19;20018;-59
2023/07/20 01:24:22;;;;;;;0.10;0.10;;;;;;;18.54;60.79;101288.06;7342466;19;20010;-60
2023/07/20 01:26:50;;;;;;;0.00;0.00;;;;;;;18.51;61.08;101289.06;7342083;19;20031;-59
2023/07/20 01:29:42;;;;;;;0.00;0.00;;;;;;;18.51;60.31;101272.34;7337178;19;20013;-60
2023/07/20 01:32:09;;;;;;;0.10;0.10;;;;;;;18.29;61.70;101246.88;7341849;19;20017;-58
2023/07/20 01:34:36;;;;;;;0.00;0.00;;;;;;;18.45;61.90;101285.81;7337202;19;20014;-60
2023/07/20 01:37:03;;;;;;;0.10;0.10;;;;;;;18.40;61.94;101273.69;7342882;19;20014;-60
2023/07/20 01:39:28;;;;;;;0.10;0.10;;;;;;;18.29;61.76;101262.72;7337447;19;20011;-60
2023/07/20 01:41:55;;;;;;;0.10;0.10;;;;;;;18.37;62.19;101276.47;7340877;19;20037;-60
2023/07/20 01:44:21;;;;;;;0.10;0.10;;;;;;;18.25;62.20;101261.19;7338712;19;20014;-60
2023/07/20 01:46:46;;;;;;;0.05;0.05;;;;;;;18.34;61.80;101273.97;7342367;19;20023;-59
2023/07/20 01:49:11;;;;;;;0.10;0.10;;;;;;;18.33;62.03;101272.25;7338119;19;20108;-60
2023/07/20 01:51:37;;;;;;;0.00;0.00;;;;;;;18.31;62.30;101268.84;7341562;19;20046;-60
2023/07/20 01:54:02;;;;;;;0.10;0.10;;;;;;;18.30;62.23;101269.75;7340331;19;20011;-60
2023/07/20 01:56:28;;;;;;;0.03;0.03;;;;;;;18.28;62.55;101260.16;7342004;19;20462;-59
2023/07/20 01:58:53;;;;;;;0.00;0.00;;;;;;;18.26;62.24;101268.19;7338258;19;20335;-59
2023/07/20 02:01:19;;;;;;;0.10;0.10;;;;;;;18.26;61.95;101267.31;7340445;19;20017;-60
2023/07/20 02:03:44;;;;;;;0.10;0.10;;;;;;;18.23;62.11;101268.31;7342048;19;20030;-60
2023/07/20 02:06:09;;;;;;;0.10;0.10;;;;;;;18.21;62.14;101259.59;7340937;19;20014;-60
2023/07/20 02:08:35;;;;;;;0.10;0.10;;;;;;;18.19;62.10;101261.44;7342369;19;20458;-59
2023/07/20 02:11:01;;;;;;;0.10;0.10;;;;;;;18.18;62.38;101265.03;7339451;19;20037;-60
2023/07/20 02:13:26;;;;;;;0.00;0.00;;;;;;;18.16;62.31;101256.31;7342585;19;20469;-60
2023/07/20 02:15:52;;;;;;;0.00;0.00;;;;;;;18.14;62.77;101252.88;7340974;19;20700;-60
2023/07/20 02:18:17;;;;;;;0.00;0.00;;;;;;;18.13;62.34;101261.72;7341566;19;20018;-60
2023/07/20 02:20:42;;;;;;;0.10;0.10;;;;;;;18.10;62.72;101256.59;7336266;19;20630;-60
2023/07/20 02:23:08;;;;;;;0.00;0.00;;;;;;;18.07;62.46;101252.28;7333496;19;20021;-60
2023/07/20 02:25:33;;;;;;;0.03;0.03;;;;;;;18.06;62.48;101249.72;7332475;19;20653;-60
2023/07/20 02:27:59;;;;;;;0.10;0.10;;;;;;;18.01;62.46;101251.72;7343691;19;20596;-59
2023/07/20 02:30:24;;;;;;;0.10;0.10;;;;;;;18.01;62.51;101246.44;7352649;19;20019;-60
2023/07/20 02:32:49;;;;;;;0.00;0.00;;;;;;;17.96;62.85;101251.06;7352461;19;20002;-60
2023/07/20 02:35:15;;;;;;;0.00;0.00;;;;;;;17.94;63.11;101244.97;7350293;19;20876;-60
2023/07/20 02:37:41;;;;;;;0.08;0.08;;;;;;;17.89;62.65;101243.41;7350733;19;20014;-60
2023/07/20 02:40:07;;;;;;;0.00;0.00;;;;;;;17.86;62.80;101243.53;7342186;19;20714;-60
2023/07/20 02:42:33;;;;;;;0.00;0.00;;;;;;;17.84;63.18;101245.41;7351441;19;20014;-60
2023/07/20 02:44:58;;;;;;;0.00;0.00;;;;;;;17.81;63.08;101239.38;7351676;19;20018;-60
2023/07/20 02:47:24;;;;;;;0.10;0.10;;;;;;;17.78;63.33;101235.09;7350201;19;20099;-60
2023/07/20 02:49:49;;;;;;;0.05;0.05;;;;;;;17.74;62.98;101244.09;7351861;19;20011;-59
2023/07/20 02:52:15;;;;;;;0.10;0.10;;;;;;;17.74;63.07;101237.94;7345289;19;20025;-60
2023/07/20 02:54:40;;;;;;;0.10;0.10;;;;;;;17.72;63.35;101235.31;7350041;19;20013;-60
2023/07/20 02:57:05;;;;;;;0.00;0.00;;;;;;;17.69;63.33;101237.25;7349075;19;20018;-60
2023/07/20 02:59:31;;;;;;;0.00;0.00;;;;;;;17.68;63.25;101235.53;7351548;19;20700;-60
2023/07/20 03:01:57;;;;;;;0.10;0.10;;;;;;;17.66;63.53;101235.59;7349681;19;20015;-59
2023/07/20 03:04:25;;;;;;;0.00;0.00;;;;;;;17.55;63.61;101211.44;7352950;19;20051;-60
2023/07/20 03:06:50;;;;;;;0.10;0.10;;;;;;;17.60;63.21;101236.72;7351016;19;20029;-60
2023/07/20 03:09:16;;;;;;;0.00;0.00;;;;;;;17.26;63.16;101178.38;7347068;19;20026;-60
2023/07/20 03:11:41;;;;;;;0.10;0.10;;;;;;;17.59;63.32;101228.88;7353360;19;20037;-60
2023/07/20 03:14:07;;;;;;;0.10;0.10;;;;;;;17.58;63.79;101237.72;7353111;19;20095;-60
2023/07/20 03:16:34;;;;;;;0.10;0.10;;;;;;;17.48;63.75;101220.53;7350457;19;20022;-60
2023/07/20 03:19:03;;;;;;;0.08;0.08;;;;;;;17.56;63.82;101226.38;7347861;19;20029;-60
2023/07/20 03:21:29;;;;;;;0.10;0.10;;;;;;;17.55;63.72;101235.22;7338838;19;20014;-59
2023/07/20 03:23:55;;;;;;;0.10;0.10;;;;;;;17.49;63.64;101222.28;7348990;19;20025;-59
2023/07/20 03:26:20;;;;;;;0.08;0.08;;;;;;;17.51;63.93;101231.00;7351773;19;20677;-60
2023/07/20 03:28:45;;;;;;;0.10;0.10;;;;;;;17.52;64.35;101232.69;7352791;19;20098;-60
2023/07/20 03:31:11;;;;;;;0.05;0.05;;;;;;;17.51;64.21;101231.00;7351957;19;20466;-60
2023/07/20 03:33:36;;;;;;;0.00;0.00;;;;;;;17.46;64.41;101223.25;7355674;19;20011;-60
2023/07/20 03:36:02;;;;;;;0.00;0.00;;;;;;;17.47;63.95;101229.41;7354821;19;20025;-59
2023/07/20 03:38:28;;;;;;;0.00;0.00;;;;;;;17.46;64.41;101227.69;7347863;19;20057;-59
2023/07/20 03:40:55;;;;;;;0.00;0.00;;;;;;;17.32;64.02;101205.34;7352607;19;20113;-59
2023/07/20 03:43:21;;;;;;;0.10;0.10;;;;;;;17.42;64.54;101224.31;7353011;19;20027;-60
2023/07/20 03:45:48;;;;;;;0.00;0.00;;;;;;;17.42;64.31;101234.00;7354281;19;20014;-60
2023/07/20 03:48:17;;;;;;;0.00;0.00;;;;;;;17.36;64.50;101225.44;7352601;19;20022;-60
2023/07/20 03:50:46;;;;;;;0.00;0.00;;;;;;;17.38;64.38;101234.13;7353926;19;20018;-60
2023/07/20 03:53:14;;;;;;;0.00;0.00;;;;;;;17.31;64.66;101227.41;7352864;19;20011;-60
2023/07/20 03:55:40;;;;;;;0.03;0.03;;;;;;;17.34;64.42;101235.22;7353356;19;20011;-60
2023/07/20 03:58:06;;;;;;;0.10;0.10;;;;;;;17.28;64.86;101224.03;7345356;19;20561;-59
2023/07/20 04:00:32;;;;;;;0.10;0.10;;;;;;;17.28;64.85;101226.66;7353762;19;21795;-59
2023/07/20 04:02:57;;;;;;;0.00;0.00;;;;;;;17.27;64.98;101228.44;7351832;19;20010;-60
2023/07/20 04:05:23;;;;;;;0.00;0.00;;;;;;;17.25;64.65;101230.31;7348679;19;20010;-60
2023/07/20 04:07:48;;;;;;;0.10;0.10;;;;;;;17.24;65.01;101230.38;7349929;19;20029;-60
2023/07/20 04:10:13;;;;;;;0.00;0.00;;;;;;;17.22;65.08;101234.84;7349524;19;20019;-59
2023/07/20 04:12:39;;;;;;;0.00;0.00;;;;;;;17.20;64.94;101231.44;7349255;19;20030;-59
2023/07/20 04:15:06;;;;;;;0.10;0.10;;;;;;;17.17;65.12;101224.47;7352651;19;20010;-60
2023/07/20 04:17:31;;;;;;;0.10;0.10;;;;;;;17.16;65.19;101230.69;7353639;19;20779;-60
2023/07/20 04:19:56;;;;;;;0.08;0.08;;;;;;;17.15;64.86;101234.25;7351578;19;20030;-59
2023/07/20 04:22:22;;;;;;;0.08;0.08;;;;;;;17.12;65.02;101234.38;7351589;19;20062;-59
2023/07/20 04:24:47;;;;;;;0.10;0.10;;;;;;;17.11;65.02;101232.66;7350429;19;20106;-60
2023/07/20 04:27:13;;;;;;;0.00;0.00;;;;;;;17.06;65.07;101230.22;7348936;19;20007;-60
2023/07/20 04:29:38;;;;;;;0.00;0.00;;;;;;;17.05;64.46;101230.28;7351032;19;20011;-60
2023/07/20 04:32:04;;;;;;;0.10;0.10;;;;;;;17.00;65.19;101235.75;7346488;19;20014;-60
2023/07/20 04:34:29;;;;;;;0.05;0.05;;;;;;;16.99;65.07;101233.19;7352444;19;20682;-60
2023/07/20 04:36:55;;;;;;;0.00;0.00;;;;;;;16.96;64.86;101233.28;7351162;19;20116;-59
2023/07/20 04:39:20;;;;;;;0.00;0.00;;;;;;;16.93;65.20;101236.94;7352050;19;20082;-60
2023/07/20 04:41:45;;;;;;;0.10;0.10;;;;;;;16.90;65.01;101234.41;7350157;19;20026;-60
2023/07/20 04:44:13;;;;;;;0.10;0.10;;;;;;;16.89;65.10;101226.56;7352144;19;20029;-60
2023/07/20 04:46:39;;;;;;;0.05;0.05;;;;;;;16.86;65.46;101228.38;7345287;19;20022;-59
2023/07/20 04:49:05;;;;;;;0.10;0.10;;;;;;;16.73;65.29;101211.34;7352360;19;20021;-60
2023/07/20 04:51:31;;;;;;;0.03;0.03;;;;;;;16.82;65.58;101218.88;7349919;19;20011;-59
2023/07/20 04:53:57;;;;;;;0.10;0.10;;;;;;;16.81;65.45;101219.78;7350331;19;20102;-59
2023/07/20 04:56:25;;;;;;;0.00;0.00;;;;;;;16.78;65.61;101219.09;7350351;19;20019;-60
2023/07/20 04:58:51;;;;;;;0.10;0.10;;;;;;;16.77;65.27;101212.91;7350760;19;20049;-59
2023/07/20 05:01:16;;;;;;;0.08;0.08;;;;;;;16.78;65.63;101209.38;7350434;19;20021;-60
2023/07/20 05:03:42;;;;;;;0.00;0.00;;;;;;;16.78;65.85;101219.09;7346855;19;20010;-60
2023/07/20 05:06:07;;;;;;;0.00;0.00;;;;;;;16.77;65.67;101212.06;7352452;19;20014;-59
2023/07/20 05:08:33;;;;;;;0.10;0.10;;;;;;;16.76;65.52;101221.75;7345124;19;20013;-59
2023/07/20 05:10:59;;;;;;;0.10;0.10;;;;;;;16.63;65.34;101196.78;7350687;19;20804;-59
2023/07/20 05:13:25;;;;;;;0.10;0.10;;;;;;;16.49;65.37;101170.09;7346268;19;20007;-60
2023/07/20 05:15:52;;;;;;;0.10;0.10;;;;;;;16.74;65.08;101215.69;7352691;19;20626;-60
2023/07/20 05:18:19;;;;;;;0.00;0.00;;;;;;;16.73;65.56;101210.50;7349397;19;20021;-59
2023/07/20 05:20:49;;;;;;;0.10;0.10;;;;;;;16.76;65.50;101216.47;7350174;19;20704;-60
2023/07/20 05:23:14;;;;;;;0.00;0.00;;;;;;;16.74;65.36;101213.06;7350966;19;20721;-59
2023/07/20 05:25:40;;;;;;;0.10;0.10;;;;;;;16.75;65.86;101209.50;7349369;19;20015;-60
2023/07/20 05:28:06;;;;;;;0.10;0.10;;;;;;;16.76;65.42;101203.28;7350701;19;20292;-60
2023/07/20 05:30:31;;;;;;;0.10;0.10;;;;;;;16.77;65.52;101207.66;7347602;19;20011;-59
2023/07/20 05:32:57;;;;;;;0.00;0.00;;;;;;;16.79;65.90;101213.75;7349980;19;20007;-60
2023/07/20 05:35:23;;;;;;;0.00;0.00;;;;;;;16.80;65.79;101210.16;7348996;19;20037;-60
2023/07/20 05:37:48;;;;;;;0.00;0.00;;;;;;;16.79;65.62;101205.81;7351614;19;20022;-60
2023/07/20 05:40:18;;;;;;;0.00;0.00;;;;;;;16.84;65.51;101206.50;7345752;19;20050;-59
2023/07/20 05:42:44;;;;;;;0.00;0.00;;;;;;;16.84;65.90;101203.84;7346171;19;20010;-60
2023/07/20 05:45:09;;;;;;;0.10;0.10;;;;;;;16.86;65.51;101201.16;7347598;19;20027;-60
2023/07/20 05:47:35;;;;;;;0.10;0.10;;;;;;;16.89;65.47;101202.81;7346271;19;20011;-59
2023/07/20 05:50:00;;;;;;;0.00;0.00;;;;;;;16.90;65.83;101196.63;7351569;19;20010;-60
2023/07/20 05:52:26;;;;;;;0.10;0.10;;;;;;;16.92;65.91;101192.13;7342750;19;20013;-59
2023/07/20 05:54:51;;;;;;;0.10;0.10;;;;;;;16.94;66.20;101192.94;7350640;19;20333;-60
2023/07/20 05:57:17;;;;;;;0.10;0.10;;;;;;;16.96;65.87;101185.81;7350021;19;20028;-59
2023/07/20 05:59:44;;;;;;;0.00;0.00;;;;;;;16.97;66.05;101193.66;7342039;19;20006;-60
2023/07/20 06:02:10;;;;;;;0.00;0.00;;;;;;;16.98;66.25;101186.59;7346447;19;20007;-59
2023/07/20 06:04:35;;;;;;;0.00;0.00;;;;;;;17.05;66.19;101206.53;7354096;19;20022;-60
2023/07/20 06:07:01;;;;;;;0.00;0.00;;;;;;;16.96;65.52;101185.81;7354242;19;20025;-60
2023/07/20 06:09:27;;;;;;;0.10;0.10;;;;;;;17.08;65.61;101206.38;7352331;19;20021;-60
2023/07/20 06:11:52;;;;;;;0.10;0.10;;;;;;;17.14;65.47;101216.72;7353264;19;20348;-59
2023/07/20 06:14:18;;;;;;;0.10;0.10;;;;;;;17.15;65.26;101218.44;7345562;19;20041;-60
2023/07/20 06:16:44;;;;;;;0.10;0.10;;;;;;;17.18;65.23;101213.00;7352303;19;20021;-59
2023/07/20 06:19:12;;;;;;;0.08;0.08;;;;;;;17.21;65.52;101219.94;7352277;19;20006;-60
2023/07/20 06:21:37;;;;;;;0.10;0.10;;;;;;;17.23;65.35;101218.94;7353159;19;20022;-60
2023/07/20 06:24:03;;;;;;;0.10;0.10;;;;;;;17.25;65.36;101225.03;7350476;19;20006;-59
2023/07/20 06:26:29;;;;;;;0.10;0.10;;;;;;;17.27;65.10;101219.69;7352153;19;20014;-59
2023/07/20 06:28:55;;;;;;;0.05;0.05;;;;;;;17.29;64.98;101224.00;7354534;19;20030;-59
2023/07/20 06:31:21;;;;;;;0.00;0.00;;;;;;;17.30;64.97;101236.25;7354519;19;20017;-59
2023/07/20 06:33:46;;;;;;;0.10;0.10;;;;;;;17.32;65.07;101231.75;7353391;19;20027;-59
2023/07/20 06:36:12;;;;;;;0.10;0.10;;;;;;;17.35;65.05;101226.34;7355320;19;20002;-60
2023/07/20 06:38:37;;;;;;;0.10;0.10;;;;;;;17.37;65.30;101229.78;7350885;19;20018;-60
2023/07/20 06:41:03;;;;;;;0.10;0.10;;;;;;;17.42;65.00;101240.16;7347925;19;20103;-60
2023/07/20 06:43:28;;;;;;;0.10;0.10;;;;;;;17.44;64.77;101233.03;7353236;19;20801;-60
2023/07/20 06:45:54;;;;;;;0.10;0.10;;;;;;;17.48;64.85;101236.38;7354690;19;20007;-59
2023/07/20 06:48:20;;;;;;;0.05;0.05;;;;;;;17.49;64.91;101240.78;7349534;19;20541;-60
2023/07/20 06:50:46;;;;;;;0.00;0.00;;;;;;;17.51;64.76;101242.41;7354453;19;20010;-60
2023/07/20 06:53:11;;;;;;;0.10;0.10;;;;;;;17.52;64.56;101248.53;7351781;19;20049;-60
2023/07/20 06:55:37;;;;;;;0.05;0.05;;;;;;;17.53;64.76;101244.97;7350346;19;20052;-60
2023/07/20 06:58:02;;;;;;;0.10;0.10;;;;;;;17.54;64.47;101241.44;7352373;19;20618;-59
2023/07/20 07:00:28;;;;;;;0.00;0.00;;;;;;;17.53;64.49;101243.19;7349601;19;20006;-60
2023/07/20 07:02:53;;;;;;;0.10;0.10;;;;;;;17.48;64.41;101231.09;7348696;19;20018;-60
2023/07/20 07:05:19;;;;;;;0.03;0.03;;;;;;;17.54;64.86;101238.78;7348546;19;20030;-60
2023/07/20 07:07:44;;;;;;;0.10;0.10;;;;;;;17.55;64.45;101245.78;7351737;19;20014;-60
2023/07/20 07:10:10;;;;;;;0.10;0.10;;;;;;;17.56;64.81;101245.69;7353955;19;20042;-60
2023/07/20 07:12:35;;;;;;;0.00;0.00;;;;;;;17.58;64.28;101245.63;7338893;19;21620;-60
2023/07/20 07:15:02;;;;;;;0.10;0.10;;;;;;;17.61;64.71;101248.16;7349842;19;20026;-59
2023/07/20 07:17:28;;;;;;;0.00;0.00;;;;;;;17.63;64.67;101246.28;7346651;19;20003;-60
2023/07/20 07:19:54;;;;;;;0.08;0.08;;;;;;;17.54;64.72;101225.59;7352804;19;20002;-59
2023/07/20 07:22:21;;;;;;;0.10;0.10;;;;;;;17.73;64.19;101241.50;7350955;19;20463;-60
2023/07/20 07:24:46;;;;;;;0.08;0.08;;;;;;;17.75;64.22;101235.25;7350583;19;20754;-59
2023/07/20 07:27:12;;;;;;;0.05;0.05;;;;;;;17.86;64.64;101243.53;7347140;19;20059;-59
2023/07/20 07:29:37;;;;;;;0.00;0.00;;;;;;;17.95;64.58;101244.94;7355262;19;20041;-60
2023/07/20 07:32:03;;;;;;;0.00;0.00;;;;;;;17.92;63.89;101220.41;7351006;19;20122;-61
2023/07/20 07:34:29;;;;;;;0.10;0.10;;;;;;;18.15;63.54;101233.47;7350790;19;20063;-60
2023/07/20 07:36:54;;;;;;;0.00;0.00;;;;;;;18.24;63.45;101245.38;7347639;19;20003;-60
2023/07/20 07:39:19;;;;;;;0.00;0.00;;;;;;;18.31;62.90;101237.09;7355037;19;20474;-60
2023/07/20 07:41:45;;;;;;;0.00;0.00;;;;;;;18.39;62.68;101237.59;7348872;19;21100;-60
2023/07/20 07:44:11;;;;;;;0.00;0.00;;;;;;;18.46;62.90;101237.31;7353855;19;20002;-60
2023/07/20 07:46:36;;;;;;;0.00;0.00;;;;;;;18.52;63.13;101237.03;7349184;19;20011;-60
2023/07/20 07:49:01;;;;;;;0.10;0.10;;;;;;;18.57;62.99;101237.66;7354521;19;20010;-60
2023/07/20 07:51:27;;;;;;;0.10;0.10;;;;;;;18.60;62.43;101240.16;7352770;19;20026;-60
2023/07/20 07:53:52;;;;;;;0.10;0.10;;;;;;;18.65;62.58;101238.13;7353184;19;20050;-60
2023/07/20 07:56:22;;;;;;;0.10;0.10;;;;;;;18.67;62.04;101234.50;7350649;19;20035;-60
2023/07/20 07:58:51;;;;;;;0.03;0.03;;;;;;;18.69;61.77;101234.47;7349318;19;20014;-60
2023/07/20 08:01:18;;;;;;;0.00;0.00;;;;;;;18.72;61.39;101236.97;7351718;19;20028;-60
2023/07/20 08:03:46;;;;;;;0.10;0.10;;;;;;;18.72;61.16;101229.03;7349563;19;20027;-60
2023/07/20 08:06:12;;;;;;;0.00;0.00;;;;;;;18.74;60.96;101232.44;7347630;19;20296;-60
2023/07/20 08:08:38;;;;;;;0.00;0.00;;;;;;;18.74;60.78;101231.59;7350825;19;20409;-60
2023/07/20 08:11:04;;;;;;;0.00;0.00;;;;;;;18.77;60.13;101237.59;7351432;19;20018;-60
2023/07/20 08:13:29;;;;;;;0.00;0.00;;;;;;;18.78;60.69;101230.53;7351428;19;20003;-60
2023/07/20 08:15:55;;;;;;;0.00;0.00;;;;;;;18.79;60.79;101235.72;7351220;19;20002;-62
2023/07/20 08:18:21;;;;;;;0.00;0.00;;;;;;;18.81;60.54;101233.88;7352960;19;20050;-60
2023/07/20 08:20:47;;;;;;;0.10;0.10;;;;;;;18.84;59.41;101235.50;7349176;19;20035;-60
2023/07/20 08:23:13;;;;;;;0.10;0.10;;;;;;;18.86;60.49;101231.88;7352068;19;20014;-60
2023/07/20 08:25:41;;;;;;;0.05;0.05;;;;;;;18.81;59.27;101217.16;7346454;19;20019;-60
2023/07/20 08:28:09;;;;;;;0.03;0.03;;;;;;;18.85;59.61;101219.53;7347705;19;20129;-58
2023/07/20 08:30:42;;;;;;;0.00;0.00;;;;;;;19.03;60.47;101238.13;7352530;19;20027;-60
2023/07/20 08:33:07;;;;;;;0.10;0.10;;;;;;;19.05;59.74;101230.94;7352651;19;20022;-60
2023/07/20 08:35:33;;;;;;;0.05;0.05;;;;;;;19.11;59.60;101235.94;7353361;19;20007;-60
2023/07/20 08:37:59;;;;;;;0.00;0.00;;;;;;;19.19;58.90;101239.06;7348479;19;20094;-60
2023/07/20 08:40:24;;;;;;;0.10;0.10;;;;;;;19.28;59.24;101235.09;7353112;19;20350;-60
2023/07/20 08:42:50;;;;;;;0.00;0.00;;;;;;;19.38;58.40;101247.81;7347382;19;20014;-60
2023/07/20 08:45:17;;;;;;;0.00;0.00;;;;;;;19.48;58.49;101239.41;7349372;19;20905;-61
2023/07/20 08:47:45;;;;;;;0.00;0.00;;;;;;;19.56;58.53;101242.50;7350353;19;20003;-60
2023/07/20 08:50:12;;;;;;;0.10;0.10;;;;;;;19.65;58.05;101242.91;7347089;19;20010;-60
2023/07/20 08:52:37;;;;;;;;;;;;;;;19.84;60.27;101232.22;7351277;19;20011;-60
2023/07/20 08:55:04;;;;;;;0.03;0.03;;;;;;;19.86;57.22;101234.75;7350818;19;20283;-60
2023/07/20 08:57:33;;;;;;;0.10;0.10;;;;;;;19.98;57.28;101233.28;7349178;19;20514;-60
2023/07/20 09:00:04;;;;;;;0.05;0.05;;;;;;;20.08;56.89;101226.53;7344632;19;20470;-60
2023/07/20 09:02:35;;;;;;;0.05;0.05;;;;;;;20.18;57.08;101235.72;7350867;19;20874;-60
2023/07/20 09:05:00;;;;;;;0.00;0.00;;;;;;;20.24;56.61;101230.06;7348998;19;20018;-60
2023/07/20 09:07:26;;;;;;;0.10;0.10;;;;;;;20.33;55.81;101226.91;7352295;19;20094;-60
2023/07/20 09:09:52;;;;;;;0.00;0.00;;;;;;;20.44;55.96;101226.31;7335393;19;20036;-60
2023/07/20 09:12:17;;;;;;;0.00;0.00;;;;;;;20.53;56.71;101228.50;7352659;19;20098;-60
2023/07/20 09:14:45;;;;;;;0.10;0.10;;;;;;;20.59;57.31;101211.38;7346950;19;20078;-60
2023/07/20 09:17:15;;;;;;;0.00;0.00;;;;;;;20.82;57.13;101232.16;7350582;19;20438;-60
2023/07/20 09:19:47;;;;;;;0.05;0.05;;;;;;;20.97;56.58;101212.69;7347968;19;20626;-60
2023/07/20 09:22:13;;;;;;;0.10;0.10;;;;;;;21.03;56.50;101222.09;7349164;19;20537;-60
2023/07/20 09:24:39;;;;;;;0.10;0.10;;;;;;;21.14;55.52;101217.03;7347953;19;20006;-60
2023/07/20 09:27:04;;;;;;;0.10;0.10;;;;;;;21.24;55.80;101223.50;7349399;19;20010;-61
2023/07/20 09:29:30;;;;;;;0.10;0.10;;;;;;;21.32;55.11;101220.41;7350400;19;20021;-60
2023/07/20 09:32:03;;;;;;;0.10;0.10;;;;;;;21.42;55.63;101216.25;7347664;19;20017;-60
2023/07/20 09:34:33;;;;;;;0.10;0.10;;;;;;;21.39;54.14;101221.78;7348751;19;20021;-60
2023/07/20 09:37:00;;;;;;;0.10;0.10;;;;;;;21.41;53.85;101221.69;7348322;19;20014;-60
2023/07/20 09:39:25;;;;;;;0.10;0.10;;;;;;;21.42;53.56;101223.38;7355753;19;20820;-60
2023/07/20 09:41:51;;;;;;;0.08;0.08;;;;;;;21.45;54.11;101221.41;7323991;19;20007;-60
2023/07/20 09:44:17;;;;;;;0.10;0.10;;;;;;;21.50;54.03;101219.31;7356000;19;20006;-60
2023/07/20 09:46:47;;;;;;;0.00;0.00;;;;;;;21.67;54.64;101215.63;7354888;19;20041;-61
2023/07/20 09:49:14;;;;;;;0.10;0.10;;;;;;;21.77;53.66;101215.94;7355197;19;20022;-60
2023/07/20 09:51:40;;;;;;;0.10;0.10;;;;;;;21.82;53.99;101195.25;7352025;19;20109;-61
2023/07/20 09:54:06;;;;;;;0.10;0.10;;;;;;;22.13;52.57;101209.31;7346944;19;20417;-60
2023/07/20 09:56:33;;;;;;;0.10;0.10;;;;;;;22.32;53.59;101206.34;7352478;19;20629;-61
2023/07/20 09:58:59;;;;;;;0.10;0.10;;;;;;;22.41;52.62;101201.28;7355221;19;20017;-60
2023/07/20 10:01:26;;;;;;;0.10;0.10;;;;;;;22.58;52.99;101212.66;7353311;19;19999;-60
2023/07/20 10:03:54;;;;;;;0.10;0.10;;;;;;;22.72;51.97;101209.94;7356153;19;20986;-61
2023/07/20 10:06:32;;;;;;;0.00;0.00;;;;;;;22.83;52.67;101202.09;7352752;19;20711;-61
2023/07/20 10:09:03;;;;;;;0.10;0.10;;;;;;;22.90;52.25;101211.41;7342393;19;20450;-60
2023/07/20 10:11:31;;;;;;;0.10;0.10;;;;;;;22.92;50.72;101214.84;7353649;19;20086;-60
2023/07/20 10:13:59;;;;;;;0.10;0.10;;;;;;;22.98;50.91;101214.44;7353463;19;20620;-60
2023/07/20 10:16:29;;;;;;;0.10;0.10;;;;;;;23.07;52.11;101202.31;7354952;19;20472;-60
2023/07/20 10:19:19;;;;;;;0.10;0.10;;;;;;;23.17;52.61;101206.06;7355060;19;20010;-61
2023/07/20 10:21:54;;;;;;;0.10;0.10;;;;;;;23.38;51.39;101206.44;7351332;19;20466;-60
2023/07/20 10:24:20;;;;;;;0.10;0.10;;;;;;;23.53;49.78;101197.38;7352027;19;20013;-61
2023/07/20 10:26:45;;;;;;;0.10;0.10;;;;;;;23.81;49.84;101193.66;7356137;19;20564;-61
2023/07/20 10:29:12;;;;;;;0.10;0.10;;;;;;;24.17;48.98;101196.47;7346100;19;20024;-60
2023/07/20 10:31:38;;;;;;;0.03;0.03;;;;;;;24.52;48.76;101192.13;7356213;19;20030;-61
2023/07/20 10:34:04;;;;;;;0.10;0.10;;;;;;;24.90;48.51;101196.47;7355308;19;20024;-61
2023/07/20 10:36:30;;;;;;;0.00;0.00;;;;;;;25.25;48.24;101190.31;7355631;19;20037;-61
2023/07/20 10:38:57;;;;;;;0.00;0.00;;;;;;;25.60;46.24;101195.59;7353762;19;20006;-61
2023/07/20 10:41:27;;;;;;;;;;;;;;;26.04;52.09;101199.28;7355702;19;20025;-61
2023/07/20 10:44:00;;;;;;;0.10;0.10;;;;;;;26.10;47.91;101205.00;7352702;19;19922;-60
2023/07/20 10:46:46;;;;;;;0.00;0.00;;;;;;;26.20;48.11;101204.25;7353468;19;20586;-61
2023/07/20 10:49:14;;;;;;;0.10;0.10;;;;;;;26.03;44.94;101195.75;7350615;19;20334;-61
2023/07/20 10:51:41;;;;;;;0.10;0.10;;;;;;;25.91;44.81;101199.41;7348512;19;20014;-60
2023/07/20 10:54:18;;;;;;;0.10;0.10;;;;;;;25.86;46.96;101198.94;7352812;19;20104;-61
2023/07/20 10:56:47;;;;;;;0.10;0.10;;;;;;;25.65;46.64;101197.88;7351310;19;20014;-60
2023/07/20 10:59:40;;;;;;;0.08;0.08;;;;;;;25.54;46.59;101196.06;7353174;19;20639;-61
2023/07/20 11:02:07;;;;;;;0.10;0.10;;;;;;;25.37;46.70;101194.69;7251011;19;2004467;-61
2023/07/20 11:04:42;;;;;;;;;;;;;;;25.47;49.56;101193.00;7354431;19;20010;-61
2023/07/20 11:07:08;;;;;;;0.05;0.05;;;;;;;25.43;46.04;101188.00;7354624;19;19921;-61
2023/07/20 11:09:35;;;;;;;0.10;0.10;;;;;;;25.56;44.08;101178.94;7353297;19;20010;-61
2023/07/20 11:12:11;;;;;;;0.00;0.00;;;;;;;25.90;47.03;101176.28;7351379;19;20022;-61
2023/07/20 11:14:41;;;;;;;0.00;0.00;;;;;;;26.22;45.78;101170.19;7351581;19;20006;-61
2023/07/20 11:17:14;;;;;;;0.00;0.00;;;;;;;26.65;46.23;101168.38;7349829;19;20017;-61
2023/07/20 11:19:43;;;;;;;0.00;0.00;;;;;;;27.00;43.50;101177.13;7350328;19;20027;-61
2023/07/20 11:22:09;;;;;;;0.10;0.10;;;;;;;27.34;42.81;101173.31;7349951;19;20755;-61
2023/07/20 11:24:39;;;;;;;0.10;0.10;;;;;;;27.65;42.26;101173.34;7352575;19;20377;-61